createdAt,value
2022-12-18T00:00:01.052Z,1002.3126
2022-12-18T00:01:01.210Z,1002.3672
2022-12-18T00:02:00.454Z,1002.4491
2022-12-18T00:03:00.617Z,1002.3672
2022-12-18T00:04:00.806Z,1002.4218
2022-12-18T00:05:00.793Z,1002.3672
2022-12-18T00:06:00.943Z,1002.3672
2022-12-18T00:07:01.112Z,1002.2782
2022-12-18T00:08:01.229Z,1002.2642
2022-12-18T00:09:00.376Z,1002.3527
2022-12-18T00:10:00.517Z,1002.2708
2022-12-18T00:11:00.736Z,1002.4207
2022-12-18T00:13:03.889Z,1002.4136
2022-12-18T00:14:01.107Z,1002.4205
2022-12-18T00:15:01.251Z,1002.2361
2022-12-18T00:16:00.469Z,1002.2772
2022-12-18T00:17:00.577Z,1002.3519
2022-12-18T00:18:00.703Z,1002.1813
2022-12-18T00:19:00.831Z,1002.4134
2022-12-18T00:20:00.986Z,1002.5429
2022-12-18T00:21:01.134Z,1002.4676
2022-12-18T00:22:00.297Z,1002.4743
2022-12-18T00:23:00.424Z,1002.3172
2022-12-18T00:24:00.586Z,1002.59
2022-12-18T00:25:00.718Z,1002.4875
2022-12-18T00:26:00.864Z,1002.4602
2022-12-18T00:27:01.035Z,1002.4804
2022-12-18T00:28:01.163Z,1002.5693
2022-12-18T00:29:00.314Z,1002.5693
2022-12-18T00:30:00.451Z,1002.3779
2022-12-18T00:31:00.605Z,1002.4938
2022-12-18T00:32:00.840Z,1002.5826
2022-12-18T00:33:00.926Z,1002.5143
2022-12-18T00:34:01.046Z,1002.5347
2022-12-18T00:35:01.181Z,1002.5688
2022-12-18T00:36:00.330Z,1002.5281
2022-12-18T00:37:00.476Z,1002.644
2022-12-18T00:38:00.669Z,1002.7875
2022-12-18T00:39:00.795Z,1002.6784
2022-12-18T00:40:00.942Z,1002.5147
2022-12-18T00:41:01.094Z,1002.4258
2022-12-18T00:42:01.248Z,1002.7057
2022-12-18T00:43:00.403Z,1002.719
2022-12-18T00:44:00.568Z,1002.6779
2022-12-18T00:45:00.675Z,1002.7052
2022-12-18T00:46:00.868Z,1002.5416
2022-12-18T00:47:00.979Z,1002.4598
2022-12-18T00:48:01.118Z,1002.6985
2022-12-18T00:49:00.290Z,1002.419
2022-12-18T00:50:00.422Z,1002.5076
2022-12-18T00:51:00.555Z,1002.4804
2022-12-18T00:52:00.709Z,1002.644
2022-12-18T00:53:00.856Z,1002.5688
2022-12-18T00:54:01.030Z,1002.5688
2022-12-18T00:55:06.022Z,1002.5143
2022-12-18T00:56:00.302Z,1002.6985
2022-12-18T00:57:00.457Z,1002.6779
2022-12-18T00:58:00.595Z,1002.5889
2022-12-18T00:59:00.773Z,1002.6365
2022-12-18T01:00:00.896Z,1002.4729
2022-12-18T01:01:01.112Z,1002.4729
2022-12-18T01:02:01.362Z,1002.4184
2022-12-18T01:03:00.396Z,1002.7456
2022-12-18T01:04:00.501Z,1002.3771
2022-12-18T01:05:00.652Z,1002.6566
2022-12-18T01:06:00.785Z,1002.6093
2022-12-18T01:07:00.936Z,1002.582
2022-12-18T01:08:01.084Z,1002.5275
2022-12-18T01:09:01.229Z,1002.5547
2022-12-18T01:10:00.388Z,1002.582
2022-12-18T01:11:00.518Z,1002.7183
2022-12-18T01:12:00.672Z,1002.582
2022-12-18T01:13:00.834Z,1002.582
2022-12-18T01:14:00.978Z,1002.582
2022-12-18T01:15:01.106Z,1002.6911
2022-12-18T01:17:00.356Z,1002.7183
2022-12-18T01:18:00.513Z,1002.582
2022-12-18T01:19:00.651Z,1002.6365
2022-12-18T01:20:00.787Z,1002.6093
2022-12-18T01:21:00.943Z,1002.6911
2022-12-18T01:22:01.091Z,1002.8274
2022-12-18T01:23:01.256Z,1002.7456
2022-12-18T01:24:00.377Z,1003.0355
2022-12-18T01:25:00.528Z,1003.0355
2022-12-18T01:26:00.672Z,1002.8405
2022-12-18T01:27:00.822Z,1002.5065
2022-12-18T01:28:00.985Z,1002.7729
2022-12-18T01:29:01.126Z,1002.6908
2022-12-18T01:31:00.357Z,1002.8989
2022-12-18T01:32:00.538Z,1003.0355
2022-12-18T01:33:00.647Z,1002.6911
2022-12-18T01:34:00.828Z,1002.8277
2022-12-18T01:35:00.936Z,1002.9133
2022-12-18T01:36:01.091Z,1002.8861
2022-12-18T01:37:01.226Z,1002.7393
2022-12-18T01:38:00.376Z,1002.9406
2022-12-18T01:39:00.537Z,1002.7936
2022-12-18T01:40:00.683Z,1002.8792
2022-12-18T01:41:00.827Z,1002.6847
2022-12-18T01:42:00.963Z,1002.934
2022-12-18T01:43:01.130Z,1002.7665
2022-12-18T01:44:00.264Z,1002.8792
2022-12-18T01:45:00.457Z,1003.1381
2022-12-18T01:46:00.633Z,1003.1381
2022-12-18T01:47:00.721Z,1002.8547
2022-12-18T01:48:00.872Z,1002.9054
2022-12-18T01:49:01.023Z,1003.0207
2022-12-18T01:50:01.197Z,1003.0207
2022-12-18T01:51:00.316Z,1003.0549
2022-12-18T01:52:00.462Z,1003.0207
2022-12-18T01:53:00.612Z,1003.1231
2022-12-18T01:54:00.756Z,1002.9868
2022-12-18T01:55:00.928Z,1003.1984
2022-12-18T01:56:01.052Z,1002.98
2022-12-18T01:57:01.189Z,1003.0959
2022-12-18T01:58:00.350Z,1002.9866
2022-12-18T01:59:00.482Z,1003.0207
2022-12-18T02:00:00.662Z,1002.939
2022-12-18T02:01:00.873Z,1002.8776
2022-12-18T02:02:01.114Z,1002.8776
2022-12-18T02:03:01.098Z,1003.0207
2022-12-18T02:04:01.232Z,1002.9866
2022-12-18T02:05:00.386Z,1003.2184
2022-12-18T02:06:00.523Z,1003.2388
2022-12-18T02:07:00.670Z,1003.0959
2022-12-18T02:08:00.816Z,1003.3171
2022-12-18T02:09:00.968Z,1003.1776
2022-12-18T02:10:01.135Z,1003.2325
2022-12-18T02:11:00.257Z,1003.0959
2022-12-18T02:12:00.400Z,1003.1984
2022-12-18T02:13:00.539Z,1003.3551
2022-12-18T02:14:00.696Z,1003.2325
2022-12-18T02:15:00.893Z,1002.9868
2022-12-18T02:16:01.047Z,1003.048
2022-12-18T02:17:01.240Z,1003.1298
2022-12-18T02:18:00.339Z,1003.048
2022-12-18T02:19:00.489Z,1003.1025
2022-12-18T02:20:00.650Z,1003.0207
2022-12-18T02:21:00.811Z,1003.3164
2022-12-18T02:22:00.929Z,1002.9866
2022-12-18T02:23:01.080Z,1003.0614
2022-12-18T02:24:01.230Z,1003.1428
2022-12-18T02:25:00.394Z,1003.2042
2022-12-18T02:26:00.552Z,1003.1019
2022-12-18T02:27:00.678Z,1003.0608
2022-12-18T02:28:00.825Z,1003.2308
2022-12-18T02:29:00.976Z,1003.0332
2022-12-18T02:30:01.134Z,1002.9991
2022-12-18T02:31:00.338Z,1003.217
2022-12-18T02:32:00.409Z,1002.9308
2022-12-18T02:33:00.552Z,1003.0261
2022-12-18T02:34:00.707Z,1002.9989
2022-12-18T02:35:00.854Z,1002.9171
2022-12-18T02:36:01.013Z,1002.9446
2022-12-18T02:37:01.138Z,1003.0806
2022-12-18T02:38:00.277Z,1002.944
2022-12-18T02:39:00.427Z,1003.053
2022-12-18T02:40:00.583Z,1003.053
2022-12-18T02:41:00.844Z,1002.8382
2022-12-18T02:42:00.879Z,1002.8792
2022-12-18T02:43:01.019Z,1002.8727
2022-12-18T02:44:01.165Z,1003.2441
2022-12-18T02:45:00.301Z,1002.9168
2022-12-18T02:46:00.535Z,1003.0595
2022-12-18T02:47:00.599Z,1002.8823
2022-12-18T02:48:00.747Z,1003.0595
2022-12-18T02:49:00.898Z,1003.1685
2022-12-18T02:50:01.048Z,1003.0323
2022-12-18T02:51:01.200Z,1002.8961
2022-12-18T02:52:00.333Z,1003.1685
2022-12-18T02:53:00.486Z,1002.8106
2022-12-18T02:54:00.622Z,1002.7969
2022-12-18T02:55:00.771Z,1003.0593
2022-12-18T02:56:00.959Z,1002.9503
2022-12-18T02:57:01.087Z,1002.9506
2022-12-18T02:58:01.238Z,1002.8376
2022-12-18T02:59:00.382Z,1003.0251
2022-12-18T03:00:00.524Z,1002.9092
2022-12-18T03:01:00.746Z,1002.7282
2022-12-18T03:02:01.119Z,1002.9429
2022-12-18T03:03:01.077Z,1002.9089
2022-12-18T03:04:01.118Z,1002.7555
2022-12-18T03:05:00.283Z,1002.9429
2022-12-18T03:06:00.402Z,1002.8953
2022-12-18T03:07:00.530Z,1002.7895
2022-12-18T03:08:00.686Z,1002.8509
2022-12-18T03:09:00.814Z,1003.1197
2022-12-18T03:10:01.008Z,1002.8302
2022-12-18T03:11:01.106Z,1002.8505
2022-12-18T03:12:01.255Z,1003.0856
2022-12-18T03:13:00.394Z,1002.8505
2022-12-18T03:14:00.541Z,1002.8505
2022-12-18T03:15:00.732Z,1002.844
2022-12-18T03:16:00.844Z,1002.9089
2022-12-18T03:17:01.036Z,1003.1812
2022-12-18T03:18:01.137Z,1002.9696
2022-12-18T03:19:00.280Z,1002.8505
2022-12-18T03:20:00.445Z,1003.2217
2022-12-18T03:21:00.591Z,1003.1945
2022-12-18T03:22:00.724Z,1002.9831
2022-12-18T03:23:00.860Z,1002.9696
2022-12-18T03:24:01.017Z,1003.0856
2022-12-18T03:25:01.165Z,1003.0856
2022-12-18T03:26:05.832Z,1003.0513
2022-12-18T03:27:00.452Z,1003.0647
2022-12-18T03:28:00.605Z,1003.0371
2022-12-18T03:29:00.743Z,1003.0637
2022-12-18T03:30:00.965Z,1003.0572
2022-12-18T03:31:01.143Z,1002.8836
2022-12-18T03:32:01.185Z,1002.9008
2022-12-18T03:33:00.635Z,1003.1596
2022-12-18T03:34:00.482Z,1003.1596
2022-12-18T03:35:00.639Z,1003.1054
2022-12-18T03:36:00.794Z,1003.1736
2022-12-18T03:37:00.940Z,1003.1192
2022-12-18T03:38:01.094Z,1003.0371
2022-12-18T03:39:01.220Z,1003.0572
2022-12-18T03:40:00.360Z,1002.9962
2022-12-18T03:41:00.516Z,1003.0782
2022-12-18T03:42:00.650Z,1002.942
2022-12-18T03:43:00.837Z,1002.9827
2022-12-18T03:44:00.943Z,1002.9283
2022-12-18T03:45:01.097Z,1003.1054
2022-12-18T03:46:01.364Z,1003.0509
2022-12-18T03:47:00.389Z,1003.0099
2022-12-18T03:48:00.543Z,1003.0371
2022-12-18T03:49:00.676Z,1003.0913
2022-12-18T03:50:00.828Z,1003.1864
2022-12-18T03:51:00.974Z,1003.1661
2022-12-18T03:52:01.115Z,1003.173
2022-12-18T03:53:00.291Z,1003.0162
2022-12-18T03:54:00.412Z,1003.2408
2022-12-18T03:55:00.560Z,1003.0162
2022-12-18T03:56:00.705Z,1003.2608
2022-12-18T03:57:00.867Z,1003.1314
2022-12-18T03:58:01.011Z,1003.0087
2022-12-18T03:59:01.155Z,1002.9747
2022-12-18T04:00:00.282Z,1003.0903
2022-12-18T04:01:00.441Z,1003.1175
2022-12-18T04:02:00.828Z,1003.0425
2022-12-18T04:03:00.729Z,1003.1514
2022-12-18T04:04:01.045Z,1003.233
2022-12-18T04:05:01.024Z,1002.9877
2022-12-18T04:06:01.181Z,1003.3035
2022-12-18T04:07:00.322Z,1003.0897
2022-12-18T04:08:00.475Z,1003.1778
2022-12-18T04:09:00.628Z,1003.2456
2022-12-18T04:10:00.779Z,1003.1569
2022-12-18T04:11:00.913Z,1003.4761
2022-12-18T04:12:01.061Z,1003.2044
2022-12-18T04:13:01.209Z,1003.0684
2022-12-18T04:14:01.953Z,1003.1362
2022-12-18T04:15:00.537Z,1003.442
2022-12-18T04:16:00.712Z,1003.2115
2022-12-18T04:17:00.820Z,1003.1228
2022-12-18T04:18:00.965Z,1003.1228
2022-12-18T04:19:01.123Z,1003.3738
2022-12-18T04:20:00.296Z,1003.3872
2022-12-18T04:21:00.405Z,1003.3738
2022-12-18T04:22:00.572Z,1003.36
2022-12-18T04:23:00.712Z,1003.2581
2022-12-18T04:24:00.859Z,1003.4413
2022-12-18T04:25:01.013Z,1003.4685
2022-12-18T04:26:01.164Z,1003.6316
2022-12-18T04:27:00.282Z,1003.4141
2022-12-18T04:28:00.435Z,1003.4141
2022-12-18T04:29:00.587Z,1003.4141
2022-12-18T04:30:00.731Z,1003.3425
2022-12-18T04:31:00.956Z,1003.3597
2022-12-18T04:32:01.019Z,1003.1353
2022-12-18T04:33:01.169Z,1003.3521
2022-12-18T04:34:00.304Z,1003.3521
2022-12-18T04:35:00.446Z,1003.3862
2022-12-18T04:36:00.625Z,1003.4816
2022-12-18T04:37:00.747Z,1003.3862
2022-12-18T04:38:00.882Z,1003.4406
2022-12-18T04:39:01.041Z,1003.1759
2022-12-18T04:40:01.182Z,1003.4141
2022-12-18T04:41:00.360Z,1003.3215
2022-12-18T04:42:00.487Z,1003.328
2022-12-18T04:43:00.683Z,1003.094
2022-12-18T04:44:00.784Z,1003.3521
2022-12-18T04:45:00.952Z,1003.169
2022-12-18T04:46:01.152Z,1003.2574
2022-12-18T04:47:01.244Z,1003.2234
2022-12-18T04:48:00.387Z,1003.4413
2022-12-18T04:49:00.546Z,1002.9855
2022-12-18T04:50:00.688Z,1003.0265
2022-12-18T04:51:00.854Z,1003.0399
2022-12-18T04:52:01.006Z,1003.1765
2022-12-18T04:53:01.129Z,1003.2309
2022-12-18T04:54:00.268Z,1003.2309
2022-12-18T04:55:00.424Z,1003.1765
2022-12-18T04:56:00.570Z,1003.3153
2022-12-18T04:57:00.741Z,1003.4141
2022-12-18T04:58:00.900Z,1003.4413
2022-12-18T04:59:01.025Z,1003.3521
2022-12-18T05:00:01.167Z,1003.1484
2022-12-18T05:01:00.312Z,1003.2572
2022-12-18T05:02:00.565Z,1003.2231
2022-12-18T05:03:00.692Z,1003.1143
2022-12-18T05:04:00.796Z,1003.2231
2022-12-18T05:05:00.901Z,1003.2231
2022-12-18T05:06:01.052Z,1003.4134
2022-12-18T05:07:01.191Z,1003.2572
2022-12-18T05:08:00.355Z,1003.3452
2022-12-18T05:09:00.489Z,1003.2093
2022-12-18T05:10:00.641Z,1003.3859
2022-12-18T05:11:00.791Z,1003.2231
2022-12-18T05:12:00.926Z,1003.5087
2022-12-18T05:13:01.335Z,1003.4685
2022-12-18T05:14:01.226Z,1003.6316
2022-12-18T05:15:00.365Z,1003.4685
2022-12-18T05:16:00.663Z,1003.5229
2022-12-18T05:17:01.269Z,1003.4957
2022-12-18T05:18:00.872Z,1003.4141
2022-12-18T05:19:00.993Z,1003.4685
2022-12-18T05:20:01.150Z,1003.3597
2022-12-18T05:21:00.300Z,1003.4141
2022-12-18T05:22:00.453Z,1003.455
2022-12-18T05:23:00.624Z,1003.4685
2022-12-18T05:24:00.758Z,1003.4141
2022-12-18T05:25:00.896Z,1003.4209
2022-12-18T05:26:01.053Z,1003.5366
2022-12-18T05:27:01.203Z,1003.3803
2022-12-18T05:28:00.358Z,1003.3669
2022-12-18T05:29:00.487Z,1003.4282
2022-12-18T05:30:00.639Z,1003.4282
2022-12-18T05:31:00.841Z,1003.4826
2022-12-18T05:32:00.929Z,1003.3738
2022-12-18T05:33:01.102Z,1003.3156
2022-12-18T05:34:01.216Z,1003.3153
2022-12-18T05:35:00.366Z,1003.2649
2022-12-18T05:36:00.510Z,1003.2515
2022-12-18T05:37:00.661Z,1003.4891
2022-12-18T05:38:00.845Z,1003.3087
2022-12-18T05:39:00.966Z,1003.2446
2022-12-18T05:40:01.117Z,1003.5978
2022-12-18T05:41:00.268Z,1003.3531
2022-12-18T05:42:00.395Z,1003.3359
2022-12-18T05:43:00.563Z,1003.2302
2022-12-18T05:44:00.701Z,1003.3859
2022-12-18T05:45:00.869Z,1003.341
2022-12-18T05:46:00.998Z,1003.3924
2022-12-18T05:47:01.175Z,1003.2093
2022-12-18T05:48:00.282Z,1003.426
2022-12-18T05:49:00.423Z,1003.4601
2022-12-18T05:50:00.588Z,1003.3988
2022-12-18T05:51:00.730Z,1003.4872
2022-12-18T05:52:00.859Z,1003.341
2022-12-18T05:53:01.003Z,1003.4126
2022-12-18T05:54:01.152Z,1003.3203
2022-12-18T05:55:00.319Z,1003.4393
2022-12-18T05:56:00.450Z,1003.3577
2022-12-18T05:57:00.609Z,1003.3918
2022-12-18T05:58:00.740Z,1003.467
2022-12-18T05:59:00.886Z,1003.6371
2022-12-18T06:00:01.044Z,1003.644
2022-12-18T06:01:01.206Z,1003.685
2022-12-18T06:02:00.511Z,1003.4403
2022-12-18T06:03:00.611Z,1003.7328
2022-12-18T06:04:00.720Z,1003.7125
2022-12-18T06:05:00.798Z,1003.5627
2022-12-18T06:06:00.955Z,1003.7125
2022-12-18T06:07:01.116Z,1003.958
2022-12-18T06:08:01.256Z,1003.9852
2022-12-18T06:09:00.430Z,1003.8492
2022-12-18T06:10:00.546Z,1003.9308
2022-12-18T06:11:00.690Z,1003.7404
2022-12-18T06:12:00.848Z,1003.8492
2022-12-18T06:13:00.977Z,1003.8764
2022-12-18T06:14:01.146Z,1003.9036
2022-12-18T06:15:00.270Z,1003.9308
2022-12-18T06:16:00.456Z,1003.624
2022-12-18T06:17:00.579Z,1003.549
2022-12-18T06:18:00.721Z,1003.5896
2022-12-18T06:19:00.891Z,1003.6914
2022-12-18T06:20:01.012Z,1003.5352
2022-12-18T06:21:01.156Z,1003.5965
2022-12-18T06:22:00.293Z,1003.7599
2022-12-18T06:23:00.450Z,1003.6784
2022-12-18T06:24:00.607Z,1003.6853
2022-12-18T06:25:00.756Z,1003.6309
2022-12-18T06:26:00.884Z,1003.5631
2022-12-18T06:27:01.032Z,1003.7948
2022-12-18T06:28:01.175Z,1003.6037
2022-12-18T06:29:00.343Z,1003.7125
2022-12-18T06:30:00.456Z,1003.5218
2022-12-18T06:31:00.611Z,1003.7596
2022-12-18T06:32:00.880Z,1003.5011
2022-12-18T06:33:00.897Z,1003.5827
2022-12-18T06:34:01.058Z,1003.7186
2022-12-18T06:35:01.186Z,1003.419
2022-12-18T06:36:01.325Z,1003.5416
2022-12-18T06:37:00.501Z,1003.725
2022-12-18T06:38:00.637Z,1003.7186
2022-12-18T06:39:00.809Z,1003.6706
2022-12-18T06:40:00.946Z,1003.6978
2022-12-18T06:41:01.142Z,1003.766
2022-12-18T06:42:00.269Z,1003.7121
2022-12-18T06:43:00.425Z,1003.8346
2022-12-18T06:44:00.563Z,1003.7599
2022-12-18T06:45:00.710Z,1003.7258
2022-12-18T06:46:00.968Z,1003.7937
2022-12-18T06:47:01.030Z,1003.7596
2022-12-18T06:48:01.152Z,1003.8615
2022-12-18T06:49:00.318Z,1003.7932
2022-12-18T06:50:00.440Z,1003.7458
2022-12-18T06:51:00.602Z,1003.8134
2022-12-18T06:52:00.747Z,1003.9089
2022-12-18T06:53:00.916Z,1003.7388
2022-12-18T06:54:01.060Z,1003.7047
2022-12-18T06:55:01.171Z,1003.7522
2022-12-18T06:56:05.113Z,1003.6978
2022-12-18T06:57:00.455Z,1003.6706
2022-12-18T06:58:00.606Z,1003.6295
2022-12-18T06:59:00.754Z,1003.8539
2022-12-18T07:00:00.899Z,1003.847
2022-12-18T07:01:01.085Z,1003.6836
2022-12-18T07:02:01.319Z,1003.6698
2022-12-18T07:03:00.447Z,1003.6223
2022-12-18T07:04:00.507Z,1003.7923
2022-12-18T07:05:02.020Z,1003.6901
2022-12-18T07:06:00.770Z,1003.7241
2022-12-18T07:07:00.933Z,1003.7172
2022-12-18T07:08:01.076Z,1003.5882
2022-12-18T07:09:01.250Z,1003.7177
2022-12-18T07:10:00.374Z,1003.5477
2022-12-18T07:11:00.527Z,1003.7108
2022-12-18T07:12:00.665Z,1003.6564
2022-12-18T07:13:00.817Z,1003.7785
2022-12-18T07:14:00.979Z,1003.7647
2022-12-18T07:15:01.116Z,1003.9144
2022-12-18T07:16:00.299Z,1003.901
2022-12-18T07:17:00.449Z,1003.7379
2022-12-18T07:18:00.563Z,1003.9351
2022-12-18T07:19:00.735Z,1003.7517
2022-12-18T07:20:00.843Z,1003.6564
2022-12-18T07:21:00.998Z,1003.8328
2022-12-18T07:22:01.150Z,1003.8462
2022-12-18T07:23:00.289Z,1003.8803
2022-12-18T07:24:00.453Z,1003.8661
2022-12-18T07:25:00.607Z,1003.8321
2022-12-18T07:26:00.728Z,1003.6965
2022-12-18T07:27:00.903Z,1003.5947
2022-12-18T07:28:01.037Z,1003.6154
2022-12-18T07:29:01.176Z,1003.6836
2022-12-18T07:30:00.338Z,1003.901
2022-12-18T07:31:00.466Z,1003.6901
2022-12-18T07:32:00.691Z,1003.8057
2022-12-18T07:33:00.797Z,1004.1115
2022-12-18T07:34:00.913Z,1003.8462
2022-12-18T07:35:01.064Z,1003.9411
2022-12-18T07:36:01.222Z,1004.0092
2022-12-18T07:37:00.364Z,1004.152
2022-12-18T07:38:00.527Z,1004.1456
2022-12-18T07:39:00.686Z,1004.152
2022-12-18T07:40:00.813Z,1004.0433
2022-12-18T07:41:00.945Z,1004.1728
2022-12-18T07:42:01.085Z,1003.8605
2022-12-18T07:43:01.231Z,1003.9829
2022-12-18T07:44:00.394Z,1003.9285
2022-12-18T07:45:00.536Z,1003.8328
2022-12-18T07:46:00.746Z,1003.8328
2022-12-18T07:47:00.821Z,1003.7785
2022-12-18T07:48:00.969Z,1003.7647
2022-12-18T07:49:01.123Z,1004.0295
2022-12-18T07:50:00.275Z,1003.7988
2022-12-18T07:51:00.419Z,1003.7785
2022-12-18T07:52:00.564Z,1003.7108
2022-12-18T07:53:00.718Z,1003.847
2022-12-18T07:54:00.876Z,1003.8333
2022-12-18T07:55:01.045Z,1003.9013
2022-12-18T07:56:26.092Z,1003.9354
2022-12-18T07:57:00.317Z,1003.8608
2022-12-18T07:58:01.245Z,1003.8881
2022-12-18T07:59:00.848Z,1003.9354
2022-12-18T08:00:00.782Z,1003.9153
2022-12-18T08:01:00.963Z,1003.888
2022-12-18T08:02:01.196Z,1003.8811
2022-12-18T08:03:01.331Z,1004.0166
2022-12-18T08:04:00.358Z,1004.1456
2022-12-18T08:05:00.526Z,1004.2819
2022-12-18T08:06:00.676Z,1003.9692
2022-12-18T08:07:00.813Z,1004.0916
2022-12-18T08:08:00.943Z,1004.309
2022-12-18T08:09:01.147Z,1004.1797
2022-12-18T08:10:01.241Z,1004.2547
2022-12-18T08:11:00.407Z,1004.2138
2022-12-18T08:12:00.533Z,1004.0774
2022-12-18T08:13:04.919Z,1004.1797
2022-12-18T08:14:00.836Z,1004.0101
2022-12-18T08:15:00.986Z,1004.0441
2022-12-18T08:16:01.147Z,1004.2888
2022-12-18T08:17:00.379Z,1004.2888
2022-12-18T08:18:00.420Z,1003.9626
2022-12-18T08:19:00.567Z,1003.9082
2022-12-18T08:20:00.720Z,1004.1871
2022-12-18T08:21:00.905Z,1004.3229
2022-12-18T08:22:01.031Z,1004.0512
2022-12-18T08:23:01.168Z,1004.0587
2022-12-18T08:24:00.370Z,1004.236
2022-12-18T08:25:00.464Z,1004.2429
2022-12-18T08:26:00.613Z,1004.2571
2022-12-18T08:27:28.410Z,1004.2571
2022-12-18T08:28:00.893Z,1004.2571
2022-12-18T08:29:01.066Z,1004.298
2022-12-18T08:30:01.199Z,1004.3524
2022-12-18T08:31:00.414Z,1004.5092
2022-12-18T08:32:00.541Z,1004.4281
2022-12-18T08:33:00.633Z,1004.5101
2022-12-18T08:34:00.814Z,1004.5517
2022-12-18T08:35:00.941Z,1004.525
2022-12-18T08:36:01.085Z,1004.4641
2022-12-18T08:37:01.236Z,1004.4641
2022-12-18T08:38:00.387Z,1004.3077
2022-12-18T08:39:00.550Z,1004.3966
2022-12-18T08:40:00.684Z,1004.4654
2022-12-18T08:41:00.828Z,1004.4521
2022-12-18T08:42:05.409Z,1004.1733
2022-12-18T08:43:01.117Z,1004.8383
2022-12-18T08:44:00.277Z,1004.2554
2022-12-18T08:45:00.455Z,1004.5272
2022-12-18T08:46:00.756Z,1004.4862
2022-12-18T08:47:00.721Z,1004.1595
2022-12-18T08:48:00.853Z,1004.6638
2022-12-18T08:49:01.009Z,1004.2554
2022-12-18T08:50:01.176Z,1004.5488
2022-12-18T08:51:00.305Z,1004.222
2022-12-18T08:52:00.443Z,1004.2088
2022-12-18T08:53:00.621Z,1004.2777
2022-12-18T08:54:00.751Z,1004.3598
2022-12-18T08:55:00.896Z,1004.2505
2022-12-18T08:56:01.030Z,1004.3049
2022-12-18T08:57:01.253Z,1004.3598
2022-12-18T08:58:00.355Z,1004.1963
2022-12-18T08:59:00.464Z,1004.4078
2022-12-18T09:00:00.613Z,1004.3261
2022-12-18T09:01:00.821Z,1004.285
2022-12-18T09:02:01.216Z,1004.599
2022-12-18T09:03:01.140Z,1004.2449
2022-12-18T09:04:01.202Z,1004.2721
2022-12-18T09:05:00.364Z,1004.4492
2022-12-18T09:06:00.541Z,1004.32
2022-12-18T09:07:00.658Z,1004.361
2022-12-18T09:08:00.836Z,1004.1703
2022-12-18T09:09:00.952Z,1004.2387
2022-12-18T09:10:01.106Z,1004.1842
2022-12-18T09:11:01.247Z,1004.1439
2022-12-18T09:12:00.381Z,1004.2465
2022-12-18T09:13:00.558Z,1004.1789
2022-12-18T09:14:00.672Z,1004.0976
2022-12-18T09:15:00.829Z,1004.2552
2022-12-18T09:16:00.977Z,1004.106
2022-12-18T09:17:01.174Z,1004.2976
2022-12-18T09:18:00.286Z,1004.2574
2022-12-18T09:19:00.430Z,1004.1548
2022-12-18T09:20:00.565Z,1004.4757
2022-12-18T09:21:00.703Z,1004.4003
2022-12-18T09:22:00.853Z,1004.4484
2022-12-18T09:23:01.017Z,1004.2583
2022-12-18T09:24:01.172Z,1004.3416
2022-12-18T09:25:00.298Z,1004.3081
2022-12-18T09:26:00.438Z,1004.234
2022-12-18T09:27:00.599Z,1004.4401
2022-12-18T09:28:00.738Z,1004.167
2022-12-18T09:29:00.909Z,1004.3035
2022-12-18T09:30:01.068Z,1004.2216
2022-12-18T09:31:01.228Z,1003.9549
2022-12-18T09:32:00.317Z,1004.0637
2022-12-18T09:33:00.466Z,1004.1457
2022-12-18T09:34:00.611Z,1004.0637
2022-12-18T09:35:00.769Z,1004.2276
2022-12-18T09:36:00.922Z,1004.1187
2022-12-18T09:37:01.055Z,1004.0851
2022-12-18T09:38:01.196Z,1004.1605
2022-12-18T09:39:05.001Z,1004.0513
2022-12-18T09:40:00.606Z,1003.7578
2022-12-18T09:41:00.672Z,1003.964
2022-12-18T09:42:00.824Z,1003.8147
2022-12-18T09:43:00.941Z,1003.8559
2022-12-18T09:44:01.087Z,1003.924
2022-12-18T09:45:01.318Z,1003.9245
2022-12-18T09:46:00.404Z,1003.9122
2022-12-18T09:47:00.564Z,1003.8302
2022-12-18T09:48:00.678Z,1003.7135
2022-12-18T09:49:00.830Z,1003.8028
2022-12-18T09:50:00.970Z,1004.0228
2022-12-18T09:51:01.127Z,1003.6739
2022-12-18T09:52:00.287Z,1003.8522
2022-12-18T09:53:00.428Z,1003.6473
2022-12-18T09:54:00.575Z,1003.9286
2022-12-18T09:55:00.742Z,1003.8401
2022-12-18T09:56:00.919Z,1003.8325
2022-12-18T09:57:01.053Z,1003.8325
2022-12-18T09:58:01.175Z,1003.6893
2022-12-18T09:59:00.316Z,1003.6479
2022-12-18T10:00:00.459Z,1003.6415
2022-12-18T10:01:00.616Z,1003.6486
2022-12-18T10:02:00.919Z,1003.7033
2022-12-18T10:03:00.986Z,1003.6569
2022-12-18T10:04:01.083Z,1003.5623
2022-12-18T10:05:01.192Z,1003.5427
2022-12-18T10:06:00.339Z,1003.4679
2022-12-18T10:07:05.650Z,1003.6603
2022-12-18T10:08:00.629Z,1003.5033
2022-12-18T10:09:00.773Z,1003.4072
2022-12-18T10:10:00.926Z,1003.2228
2022-12-18T10:11:01.058Z,1003.4218
2022-12-18T10:12:01.231Z,1003.504
2022-12-18T10:13:04.466Z,1003.3675
2022-12-18T10:14:00.496Z,1003.4848
2022-12-18T10:15:00.650Z,1003.5816
2022-12-18T10:16:00.898Z,1003.3524
2022-12-18T10:17:00.959Z,1003.3395
2022-12-18T10:18:01.128Z,1003.3129
2022-12-18T10:19:01.241Z,1003.2217
2022-12-18T10:20:00.404Z,1003.3414
2022-12-18T10:21:00.547Z,1003.421
2022-12-18T10:22:00.709Z,1003.3354
2022-12-18T10:23:00.866Z,1002.9968
2022-12-18T10:24:01.005Z,1003.3604
2022-12-18T10:25:01.139Z,1003.0591
2022-12-18T10:26:00.298Z,1003.1968
2022-12-18T10:27:00.459Z,1003.0803
2022-12-18T10:28:00.594Z,1003.1902
2022-12-18T10:29:05.288Z,1003.252
2022-12-18T10:30:00.892Z,1003.1765
2022-12-18T10:31:01.088Z,1003.1011
2022-12-18T10:32:01.222Z,1003.1225
2022-12-18T10:33:00.337Z,1003.1299
2022-12-18T10:34:00.477Z,1003.1856
2022-12-18T10:35:01.140Z,1003.22
2022-12-18T10:36:00.772Z,1003.083
2022-12-18T10:37:00.948Z,1003.3507
2022-12-18T10:38:01.068Z,1003.1385
2022-12-18T10:39:01.212Z,1003.3583
2022-12-18T10:40:00.354Z,1003.4411
2022-12-18T10:41:00.491Z,1003.1189
2022-12-18T10:42:00.655Z,1003.2365
2022-12-18T10:43:00.806Z,1003.2365
2022-12-18T10:44:00.949Z,1003.051
2022-12-18T10:45:01.107Z,1003.1265
2022-12-18T10:46:01.343Z,1003.3666
2022-12-18T10:47:00.399Z,1003.0849
2022-12-18T10:48:00.534Z,1003.3491
2022-12-18T10:49:00.703Z,1003.2429
2022-12-18T10:50:00.836Z,1003.057
2022-12-18T10:51:10.938Z,1003.4411
2022-12-18T10:52:01.126Z,1003.0567
2022-12-18T10:53:00.278Z,1003.2084
2022-12-18T10:54:00.469Z,1003.0504
2022-12-18T10:55:00.593Z,1003.1399
2022-12-18T10:56:00.729Z,1003.4756
2022-12-18T10:57:00.874Z,1003.0361
2022-12-18T10:58:01.015Z,1003.1186
2022-12-18T10:59:01.176Z,1002.9954
2022-12-18T11:00:00.309Z,1003.1265
2022-12-18T11:01:00.464Z,1003.1065
2022-12-18T11:02:00.715Z,1003.0865
2022-12-18T11:03:00.873Z,1002.9699
2022-12-18T11:04:02.547Z,1003.1011
2022-12-18T11:05:01.037Z,1002.8634
2022-12-18T11:06:01.204Z,1002.8879
2022-12-18T11:07:00.317Z,1002.9983
2022-12-18T11:08:00.472Z,1002.8643
2022-12-18T11:09:00.613Z,1002.9999
2022-12-18T11:10:00.751Z,1002.9733
2022-12-18T11:11:00.928Z,1002.7842
2022-12-18T11:12:01.054Z,1002.9191
2022-12-18T11:13:01.196Z,1003.0162
2022-12-18T11:14:00.335Z,1003.058
2022-12-18T11:15:00.491Z,1002.879
2022-12-18T11:16:00.715Z,1003.1138
2022-12-18T11:17:25.513Z,1002.8935
2022-12-18T11:18:00.928Z,1002.8142
2022-12-18T11:19:01.072Z,1002.9702
2022-12-18T11:20:01.223Z,1002.9014
2022-12-18T11:21:00.375Z,1002.9846
2022-12-18T11:22:00.539Z,1002.9846
2022-12-18T11:23:00.661Z,1003.1158
2022-12-18T11:24:00.816Z,1002.9709
2022-12-18T11:25:33.490Z,1002.9988
2022-12-18T11:26:01.108Z,1002.9782
2022-12-18T11:27:01.273Z,1003.0404
2022-12-18T11:28:00.391Z,1002.8715
2022-12-18T11:29:00.538Z,1002.8233